Tomahawk, WI

2:39 PM CST on December 22, 2014 (GMT -0600)
Lakeland-Lee Memorial | Change Station
CLOSE
Current Station
Airport
Location: Arbor Vitae,
Elevation: 1627 ft
Nearby Weather Stations
Active Advisory: Winter Weather Advisory

Elev 1627 ft 45.93 °N, 89.73 °W | Updated 24 minutes ago

Fog
Fog
34 °F
Feels Like 27 °F
N
8
Wind Variable Wind from SSE

Today
High -- | Low -- °F
--% Chance of Precip.
Yesterday
High -- | Low -- °F
Precip. -- in
7:36 AM 4:18 PM
New Moon, 1% visible
Pressure 29.73 in
Visibility 2.5 miles
Clouds Overcast 500 ft
Windchill 27 °F
Dew Point 32 °F
Humidity 94%
Rainfall 0.00 in
Snow Depth Not available.
UV 0 out of 12
Pollen .10 out of 12
Air Quality Not available.
Flu Activity Not available.
METAR KARV 222015Z AUTO 15007KT 2 1/2SM BR OVC005 01/00 A2973 RMK AO2 T00110002

More Conditions Fewer Conditions

Pressure 29.73 in
Visibility 2.5 miles
Clouds Overcast 500 ft
Windchill 27 °F
Dew Point 32 °F
Humidity 94%
Rainfall 0.00 in
Snow Depth Not available.
UV 0 out of 12
Pollen .10 out of 12
Air Quality Not available.
Flu Activity Not available.
METAR KARV 222015Z AUTO 15007KT 2 1/2SM BR OVC005 01/00 A2973 RMK AO2 T00110002

More Conditions Fewer Conditions

10-Day Weather Forecast

Almanac

Astronomy

Dec. 22, 2014 Rise Set
Actual Time
Civil Twilight
Nautical Twilight
Astronomical Twilight
Moon
Length of Visible Light
Length of Day
Tomorrow will be .
, % of the Moon is Illuminated

Today's Extremes

State Highs State Lows

Community

WunderPhotos

Upload Photos

1,779,680 photos uploaded!

WunderBlogs® & News

Nearby

Air Quality

  Air Quality AQ Index Pollutant
Not available.

Snow Depth

Station Depth Elevation

Earthquake Activity

City Distance Mag. Time & Date
Minimum magnitude displayed is 2.5.

Coastal Water Temperatures

Place Temperature

Nearby Weather Stations